createdAt,value
2023-05-22T00:02:29.171Z,13.60
2023-05-22T00:02:55.914Z,13.60
2023-05-22T00:03:20.771Z,13.60
2023-05-22T00:03:56.559Z,13.60
2023-05-22T00:04:22.299Z,13.50
2023-05-22T00:04:52.976Z,13.50
2023-05-22T00:05:23.792Z,13.50
2023-05-22T00:05:54.726Z,13.50
2023-05-22T00:06:26.009Z,13.50
2023-05-22T00:06:57.141Z,13.50
2023-05-22T00:07:28.053Z,13.50
2023-05-22T00:08:10.360Z,13.50
2023-05-22T00:11:20.630Z,13.50
2023-05-22T00:11:35.954Z,13.50
2023-05-22T00:12:11.322Z,13.50
2023-05-22T00:12:40.907Z,13.50
2023-05-22T00:13:10.227Z,13.50
2023-05-22T00:13:42.653Z,13.50
2023-05-22T00:16:12.637Z,13.50
2023-05-22T00:16:22.277Z,13.40
2023-05-22T00:16:47.520Z,13.40
2023-05-22T00:17:21.125Z,13.40
2023-05-22T00:19:06.877Z,13.40
2023-05-22T00:20:58.119Z,13.40
2023-05-22T00:21:24.925Z,13.40
2023-05-22T00:21:57.121Z,13.40
2023-05-22T00:22:28.765Z,13.40
2023-05-22T00:23:02.185Z,13.40
2023-05-22T00:24:01.297Z,13.40
2023-05-22T00:24:31.637Z,13.40
2023-05-22T00:25:11.937Z,13.40
2023-05-22T00:26:00.704Z,13.40
2023-05-22T00:26:04.079Z,13.40
2023-05-22T00:26:34.790Z,13.40
2023-05-22T00:27:06.545Z,13.40
2023-05-22T00:27:37.172Z,13.40
2023-05-22T00:28:09.202Z,13.40
2023-05-22T00:28:40.642Z,13.40
2023-05-22T00:29:10.886Z,13.40
2023-05-22T00:29:41.378Z,13.40
2023-05-22T00:30:22.053Z,13.40
2023-05-22T00:30:48.791Z,13.40
2023-05-22T00:31:14.094Z,13.40
2023-05-22T00:31:45.393Z,13.40
2023-05-22T00:32:15.949Z,13.40
2023-05-22T00:32:47.026Z,13.40
2023-05-22T00:33:17.813Z,13.40
2023-05-22T00:33:49.886Z,13.40
2023-05-22T00:34:20.995Z,13.30
2023-05-22T00:35:08.713Z,13.30
2023-05-22T00:35:22.834Z,13.30
2023-05-22T00:35:54.212Z,13.30
2023-05-22T00:36:25.273Z,13.30
2023-05-22T00:36:56.575Z,13.30
2023-05-22T00:37:26.161Z,13.30
2023-05-22T00:37:58.551Z,13.30
2023-05-22T00:38:29.770Z,13.30
2023-05-22T00:38:59.865Z,13.30
2023-05-22T00:39:31.068Z,13.30
2023-05-22T00:40:01.432Z,13.30
2023-05-22T00:40:32.551Z,13.30
2023-05-22T00:41:03.811Z,13.30
2023-05-22T00:41:34.354Z,13.30
2023-05-22T00:42:05.692Z,13.30
2023-05-22T00:42:38.897Z,13.30
2023-05-22T00:43:08.918Z,13.30
2023-05-22T00:43:38.504Z,13.30
2023-05-22T00:44:10.051Z,13.30
2023-05-22T00:44:40.669Z,13.30
2023-05-22T00:45:11.783Z,13.30
2023-05-22T00:45:43.559Z,13.30
2023-05-22T00:46:18.255Z,13.30
2023-05-22T00:46:44.613Z,13.30
2023-05-22T00:47:15.076Z,13.30
2023-05-22T00:47:46.186Z,13.30
2023-05-22T00:48:17.978Z,13.30
2023-05-22T00:48:48.909Z,13.40
2023-05-22T00:49:19.721Z,13.40
2023-05-22T00:49:50.303Z,13.40
2023-05-22T00:50:22.538Z,13.40
2023-05-22T00:50:52.313Z,13.40
2023-05-22T00:51:23.660Z,13.40
2023-05-22T00:51:54.385Z,13.40
2023-05-22T00:52:25.279Z,13.50
2023-05-22T00:53:13.420Z,13.50
2023-05-22T00:53:28.473Z,13.50
2023-05-22T00:53:58.906Z,13.50
2023-05-22T00:54:29.662Z,13.50
2023-05-22T00:55:00.183Z,13.50
2023-05-22T00:55:31.132Z,13.50
2023-05-22T00:56:02.109Z,13.50
2023-05-22T00:56:33.217Z,13.50
2023-05-22T00:57:05.240Z,13.50
2023-05-22T00:57:35.401Z,13.50
2023-05-22T00:58:06.199Z,13.50
2023-05-22T00:58:38.956Z,13.50
2023-05-22T00:59:09.518Z,13.50
2023-05-22T00:59:40.262Z,13.50
2023-05-22T01:00:11.878Z,13.60
2023-05-22T01:00:41.158Z,13.60
2023-05-22T01:01:34.489Z,13.60
2023-05-22T01:02:01.095Z,13.60
2023-05-22T01:02:14.270Z,13.60
2023-05-22T01:02:45.348Z,13.60
2023-05-22T01:03:16.227Z,13.60
2023-05-22T01:03:56.133Z,13.60
2023-05-22T01:04:19.164Z,13.60
2023-05-22T01:04:50.271Z,13.60
2023-05-22T01:05:20.502Z,13.60
2023-05-22T01:05:51.131Z,13.60
2023-05-22T01:06:22.061Z,13.60
2023-05-22T01:07:11.361Z,13.70
2023-05-22T01:07:24.767Z,13.70
2023-05-22T01:07:55.570Z,13.70
2023-05-22T01:08:25.971Z,13.70
2023-05-22T01:08:57.703Z,13.70
2023-05-22T01:09:45.256Z,13.70
2023-05-22T01:09:59.556Z,13.70
2023-05-22T01:10:30.721Z,13.70
2023-05-22T01:11:01.665Z,13.70
2023-05-22T01:11:31.966Z,13.70
2023-05-22T01:12:03.333Z,13.70
2023-05-22T01:13:05.337Z,13.70
2023-05-22T01:13:36.126Z,13.70
2023-05-22T01:14:07.505Z,13.70
2023-05-22T01:14:39.225Z,13.70
2023-05-22T01:15:11.291Z,13.70
2023-05-22T01:15:40.546Z,13.70
2023-05-22T01:16:11.295Z,13.70
2023-05-22T01:16:42.234Z,13.70
2023-05-22T01:17:13.453Z,13.70
2023-05-22T01:18:15.161Z,13.70
2023-05-22T01:19:18.175Z,13.70
2023-05-22T01:19:49.065Z,13.70
2023-05-22T01:20:20.507Z,13.70
2023-05-22T01:20:50.661Z,13.80
2023-05-22T01:21:21.528Z,13.80
2023-05-22T01:21:52.662Z,13.80
2023-05-22T01:22:23.615Z,13.80
2023-05-22T01:22:54.470Z,13.80
2023-05-22T01:23:25.751Z,13.80
2023-05-22T01:23:56.240Z,13.80
2023-05-22T01:24:27.591Z,13.80
2023-05-22T01:24:59.460Z,13.80
2023-05-22T01:25:30.278Z,13.80
2023-05-22T01:26:00.342Z,13.80
2023-05-22T01:26:31.268Z,13.80
2023-05-22T01:27:02.254Z,13.80
2023-05-22T01:27:33.851Z,13.80
2023-05-22T01:28:04.786Z,13.80
2023-05-22T01:28:35.361Z,13.80
2023-05-22T01:29:06.092Z,13.80
2023-05-22T01:29:37.839Z,13.80
2023-05-22T01:30:09.581Z,13.90
2023-05-22T01:30:40.834Z,13.90
2023-05-22T01:31:10.666Z,13.90
2023-05-22T01:31:41.478Z,13.90
2023-05-22T01:32:12.296Z,13.90
2023-05-22T01:32:43.963Z,13.90
2023-05-22T01:33:14.390Z,13.90
2023-05-22T01:33:45.584Z,13.90
2023-05-22T01:34:16.575Z,14.00
2023-05-22T01:34:47.331Z,14.00
2023-05-22T01:35:19.239Z,14.00
2023-05-22T01:35:49.827Z,14.00
2023-05-22T01:36:21.036Z,14.00
2023-05-22T01:36:51.637Z,14.00
2023-05-22T01:37:22.441Z,14.00
2023-05-22T01:37:53.588Z,14.00
2023-05-22T01:38:24.550Z,14.00
2023-05-22T01:38:55.229Z,14.00
2023-05-22T01:39:26.342Z,14.00
2023-05-22T01:39:57.742Z,14.00
2023-05-22T01:40:29.198Z,14.00
2023-05-22T01:40:59.842Z,14.00
2023-05-22T01:41:30.351Z,14.00
2023-05-22T01:42:01.648Z,14.00
2023-05-22T01:42:32.553Z,14.00
2023-05-22T01:43:03.713Z,14.00
2023-05-22T01:43:34.456Z,14.00
2023-05-22T01:44:05.956Z,14.00
2023-05-22T01:44:36.398Z,14.00
2023-05-22T01:45:07.780Z,14.00
2023-05-22T01:45:39.049Z,14.00
2023-05-22T01:46:10.150Z,14.00
2023-05-22T01:46:40.980Z,14.00
2023-05-22T01:47:11.556Z,14.00
2023-05-22T01:47:42.106Z,14.00
2023-05-22T01:48:13.697Z,14.00
2023-05-22T01:48:44.731Z,14.00
2023-05-22T01:49:15.304Z,14.00
2023-05-22T01:49:46.365Z,14.00
2023-05-22T01:50:34.750Z,14.00
2023-05-22T01:50:49.278Z,14.00
2023-05-22T01:51:19.572Z,14.00
2023-05-22T01:51:50.571Z,14.00
2023-05-22T01:52:21.814Z,14.00
2023-05-22T01:52:52.110Z,13.90
2023-05-22T01:53:23.868Z,13.90
2023-05-22T01:53:54.744Z,13.90
2023-05-22T01:54:26.061Z,13.90
2023-05-22T01:54:56.248Z,13.90
2023-05-22T01:55:27.601Z,13.90
2023-05-22T01:55:59.013Z,13.90
2023-05-22T01:56:30.707Z,13.90
2023-05-22T01:57:01.689Z,13.90
2023-05-22T01:57:32.703Z,13.80
2023-05-22T01:58:02.466Z,13.80
2023-05-22T01:58:33.292Z,13.80
2023-05-22T01:59:22.669Z,13.80
2023-05-22T01:59:35.458Z,13.70
2023-05-22T02:00:15.750Z,13.70
2023-05-22T02:00:38.612Z,13.70
2023-05-22T02:01:08.024Z,13.70
2023-05-22T02:01:40.371Z,13.70
2023-05-22T02:02:12.786Z,13.70
2023-05-22T02:02:54.174Z,13.70
2023-05-22T02:03:12.792Z,13.60
2023-05-22T02:03:43.388Z,13.60
2023-05-22T02:04:22.983Z,13.60
2023-05-22T02:04:45.395Z,13.60
2023-05-22T02:05:16.985Z,13.60
2023-05-22T02:05:49.311Z,13.50
2023-05-22T02:06:19.306Z,13.50
2023-05-22T02:06:51.187Z,13.50
2023-05-22T02:07:21.229Z,13.50
2023-05-22T02:07:51.666Z,13.50
2023-05-22T02:08:22.537Z,13.50
2023-05-22T02:08:54.006Z,13.50
2023-05-22T02:09:24.305Z,13.40
2023-05-22T02:09:55.517Z,13.40
2023-05-22T02:10:26.184Z,13.40
2023-05-22T02:10:57.758Z,13.40
2023-05-22T02:11:29.520Z,13.40
2023-05-22T02:12:00.791Z,13.40
2023-05-22T02:12:31.449Z,13.40
2023-05-22T02:13:02.231Z,13.30
2023-05-22T02:13:32.913Z,13.30
2023-05-22T02:14:03.695Z,13.30
2023-05-22T02:14:34.445Z,13.30
2023-05-22T02:15:06.555Z,13.20
2023-05-22T02:15:36.642Z,13.20
2023-05-22T02:16:08.114Z,13.20
2023-05-22T02:16:39.413Z,13.20
2023-05-22T02:17:27.076Z,13.20
2023-05-22T02:17:41.625Z,13.20
2023-05-22T02:18:11.962Z,13.20
2023-05-22T02:18:42.206Z,13.20
2023-05-22T02:19:13.791Z,13.10
2023-05-22T02:19:44.468Z,13.10
2023-05-22T02:20:15.977Z,13.10
2023-05-22T02:20:46.320Z,13.10
2023-05-22T02:21:17.288Z,13.10
2023-05-22T02:21:49.199Z,13.10
2023-05-22T02:22:21.149Z,13.10
2023-05-22T02:22:51.237Z,13.10
2023-05-22T02:23:21.955Z,13.00
2023-05-22T02:23:52.640Z,13.00
2023-05-22T02:24:23.659Z,13.00
2023-05-22T02:24:54.806Z,13.00
2023-05-22T02:25:25.552Z,13.00
2023-05-22T02:25:56.568Z,13.00
2023-05-22T02:26:28.038Z,12.90
2023-05-22T02:27:00.571Z,12.90
2023-05-22T02:27:31.132Z,12.90
2023-05-22T02:28:01.862Z,12.90
2023-05-22T02:28:32.074Z,12.90
2023-05-22T02:29:03.660Z,12.90
2023-05-22T02:29:33.351Z,12.90
2023-05-22T02:30:05.796Z,12.80
2023-05-22T02:31:12.347Z,12.80
2023-05-22T02:31:23.347Z,12.80
2023-05-22T02:31:37.761Z,12.80
2023-05-22T02:32:09.933Z,12.80
2023-05-22T02:32:41.326Z,12.70
2023-05-22T02:33:11.445Z,12.70
2023-05-22T02:33:41.939Z,12.70
2023-05-22T02:34:12.853Z,12.70
2023-05-22T02:34:43.378Z,12.60
2023-05-22T02:35:14.751Z,12.60
2023-05-22T02:35:45.424Z,12.60
2023-05-22T02:36:16.572Z,12.60
2023-05-22T02:36:47.315Z,12.60
2023-05-22T02:37:19.543Z,12.60
2023-05-22T02:37:50.737Z,12.60
2023-05-22T02:38:21.415Z,12.60
2023-05-22T02:38:51.836Z,12.50
2023-05-22T02:39:22.603Z,12.50
2023-05-22T02:39:53.499Z,12.50
2023-05-22T02:40:24.673Z,12.50
2023-05-22T02:40:55.740Z,12.50
2023-05-22T02:41:26.870Z,12.50
2023-05-22T02:41:58.923Z,12.50
2023-05-22T02:42:29.957Z,12.50
2023-05-22T02:43:00.897Z,12.50
2023-05-22T02:43:31.899Z,12.40
2023-05-22T02:44:02.950Z,12.40
2023-05-22T02:44:33.922Z,12.40
2023-05-22T02:45:05.002Z,12.40
2023-05-22T02:45:34.330Z,12.40
2023-05-22T02:46:05.679Z,12.40
2023-05-22T02:46:36.697Z,12.40
2023-05-22T02:47:08.135Z,12.40
2023-05-22T02:47:40.173Z,12.30
2023-05-22T02:48:10.889Z,12.30
2023-05-22T02:48:41.943Z,12.30
2023-05-22T02:49:12.444Z,12.30
2023-05-22T02:49:42.727Z,12.30
2023-05-22T02:50:13.925Z,12.30
2023-05-22T02:50:44.668Z,12.30
2023-05-22T02:51:15.554Z,12.20
2023-05-22T02:51:46.958Z,12.20
2023-05-22T02:52:17.698Z,12.20
2023-05-22T02:53:06.115Z,12.20
2023-05-22T02:53:20.345Z,12.20
2023-05-22T02:53:51.727Z,12.20
2023-05-22T02:54:22.056Z,12.20
2023-05-22T02:54:52.694Z,12.20
2023-05-22T02:55:25.797Z,12.10
2023-05-22T02:55:56.167Z,12.10
2023-05-22T02:56:28.098Z,12.10
2023-05-22T02:56:58.445Z,12.10
2023-05-22T02:57:29.724Z,12.10
2023-05-22T02:58:01.189Z,12.10
2023-05-22T02:58:48.475Z,12.10
2023-05-22T02:59:03.779Z,12.10
2023-05-22T02:59:35.792Z,12.00
2023-05-22T03:00:05.961Z,12.00
2023-05-22T03:01:06.832Z,12.00
2023-05-22T03:01:51.299Z,12.00
2023-05-22T03:02:24.113Z,12.00
2023-05-22T03:02:37.566Z,12.00
2023-05-22T03:03:09.388Z,12.00
2023-05-22T03:03:41.572Z,12.00
2023-05-22T03:04:11.958Z,12.00
2023-05-22T03:04:43.074Z,11.90
2023-05-22T03:05:12.836Z,11.90
2023-05-22T03:05:43.514Z,11.90
2023-05-22T03:06:14.743Z,11.90
2023-05-22T03:06:45.707Z,11.90
2023-05-22T03:07:16.733Z,11.90
2023-05-22T03:07:48.909Z,11.90
2023-05-22T03:08:19.620Z,11.90
2023-05-22T03:08:51.054Z,11.90
2023-05-22T03:09:22.044Z,11.90
2023-05-22T03:09:52.230Z,11.90
2023-05-22T03:10:22.630Z,11.90
2023-05-22T03:11:12.404Z,11.80
2023-05-22T03:11:24.531Z,11.80
2023-05-22T03:11:55.739Z,11.80
2023-05-22T03:12:26.685Z,11.80
2023-05-22T03:12:57.515Z,11.80
2023-05-22T03:13:29.201Z,11.80
2023-05-22T03:14:01.255Z,11.80
2023-05-22T03:14:31.495Z,11.80
2023-05-22T03:15:03.091Z,11.80
2023-05-22T03:15:33.058Z,11.80
2023-05-22T03:16:03.828Z,11.70
2023-05-22T03:16:34.813Z,11.70
2023-05-22T03:17:05.628Z,11.70
2023-05-22T03:17:36.983Z,11.70
2023-05-22T03:18:07.757Z,11.70
2023-05-22T03:18:38.729Z,11.70
2023-05-22T03:19:10.710Z,11.70
2023-05-22T03:19:57.738Z,11.70
2023-05-22T03:20:12.636Z,11.70
2023-05-22T03:20:43.009Z,11.70
2023-05-22T03:21:14.001Z,11.70
2023-05-22T03:21:44.718Z,11.70
2023-05-22T03:22:15.637Z,11.70
2023-05-22T03:22:46.860Z,11.70
2023-05-22T03:23:17.602Z,11.70
2023-05-22T03:23:49.217Z,11.60
2023-05-22T03:24:21.231Z,11.60
2023-05-22T03:24:52.960Z,11.60
2023-05-22T03:25:22.250Z,11.60
2023-05-22T03:25:53.157Z,11.60
2023-05-22T03:26:23.812Z,11.60
2023-05-22T03:26:54.934Z,11.60
2023-05-22T03:27:26.159Z,11.60
2023-05-22T03:27:56.820Z,11.60
2023-05-22T03:28:27.769Z,11.60
2023-05-22T03:28:59.198Z,11.60
2023-05-22T03:29:31.524Z,11.60
2023-05-22T03:30:02.501Z,11.60
2023-05-22T03:30:32.461Z,11.60
2023-05-22T03:31:03.683Z,11.60
2023-05-22T03:31:34.949Z,11.60
2023-05-22T03:32:04.790Z,11.60
2023-05-22T03:32:35.732Z,11.60
2023-05-22T03:33:24.071Z,11.60
2023-05-22T03:33:37.723Z,11.60
2023-05-22T03:34:26.419Z,11.60
2023-05-22T03:34:41.563Z,11.60
2023-05-22T03:35:12.422Z,11.60
2023-05-22T03:35:42.554Z,11.60
2023-05-22T03:36:13.147Z,11.60
2023-05-22T03:36:43.858Z,11.60
2023-05-22T03:37:14.736Z,11.60
2023-05-22T03:37:45.553Z,11.60
2023-05-22T03:38:16.708Z,11.60
2023-05-22T03:38:47.844Z,11.60
2023-05-22T03:39:18.640Z,11.60
2023-05-22T03:39:51.803Z,11.60
2023-05-22T03:40:22.091Z,11.60
2023-05-22T03:40:52.647Z,11.60
2023-05-22T03:41:23.440Z,11.60
2023-05-22T03:41:53.884Z,11.60
2023-05-22T03:42:24.693Z,11.60
2023-05-22T03:42:55.673Z,11.60
2023-05-22T03:43:26.941Z,11.60
2023-05-22T03:43:57.994Z,11.60
2023-05-22T03:44:28.655Z,11.60
2023-05-22T03:45:02.020Z,11.60
2023-05-22T03:45:32.352Z,11.60
2023-05-22T03:46:02.735Z,11.60
2023-05-22T03:46:33.351Z,11.60
2023-05-22T03:47:04.096Z,11.60
2023-05-22T03:47:34.728Z,11.60
2023-05-22T03:48:06.180Z,11.60
2023-05-22T03:48:37.052Z,11.60
2023-05-22T03:49:08.034Z,11.60
2023-05-22T03:49:38.787Z,11.60
2023-05-22T03:50:11.826Z,11.60
2023-05-22T03:50:42.301Z,11.60
2023-05-22T03:51:13.177Z,11.60
2023-05-22T03:51:43.756Z,11.60
2023-05-22T03:52:14.018Z,11.60
2023-05-22T03:52:44.913Z,11.60
2023-05-22T03:53:15.990Z,11.60
2023-05-22T03:54:04.297Z,11.60
2023-05-22T03:54:49.445Z,11.60
2023-05-22T03:55:22.692Z,11.60
2023-05-22T03:55:52.729Z,11.60
2023-05-22T03:56:22.855Z,11.60
2023-05-22T03:56:53.197Z,11.60
2023-05-22T03:57:24.238Z,11.60
2023-05-22T03:57:54.858Z,11.60
2023-05-22T03:58:25.731Z,11.60
2023-05-22T03:58:56.806Z,11.60
2023-05-22T03:59:27.982Z,11.60
2023-05-22T04:00:32.657Z,11.60
2023-05-22T04:01:01.487Z,11.60
2023-05-22T04:01:32.206Z,11.60
2023-05-22T04:02:34.814Z,11.60
2023-05-22T04:03:05.196Z,11.70
2023-05-22T04:03:38.690Z,11.70
2023-05-22T04:04:08.814Z,11.70
2023-05-22T04:04:55.383Z,11.70
2023-05-22T04:05:10.349Z,11.70
2023-05-22T04:05:40.551Z,11.70
2023-05-22T04:06:11.541Z,11.70
2023-05-22T04:06:42.130Z,11.70
2023-05-22T04:07:13.115Z,11.70
2023-05-22T04:08:15.343Z,11.80
2023-05-22T04:08:46.952Z,11.80
2023-05-22T04:09:17.741Z,11.80
2023-05-22T04:09:48.469Z,11.80
2023-05-22T04:10:20.440Z,11.80
2023-05-22T04:10:50.867Z,11.80
2023-05-22T04:11:21.463Z,11.80
2023-05-22T04:11:52.019Z,11.80
2023-05-22T04:12:22.791Z,11.80
2023-05-22T04:12:54.146Z,11.80
2023-05-22T04:13:25.171Z,11.80
2023-05-22T04:13:56.379Z,11.80
2023-05-22T04:14:28.090Z,11.80
2023-05-22T04:14:58.918Z,11.80
2023-05-22T04:15:31.292Z,11.80
2023-05-22T04:16:00.582Z,11.80
2023-05-22T04:16:31.742Z,11.90
2023-05-22T04:17:02.141Z,11.90
2023-05-22T04:17:32.835Z,11.90
2023-05-22T04:18:04.229Z,11.90
2023-05-22T04:18:35.102Z,11.90
2023-05-22T04:19:05.895Z,11.90
2023-05-22T04:19:37.655Z,11.90
2023-05-22T04:20:40.858Z,11.90
2023-05-22T04:21:10.010Z,11.90
2023-05-22T04:21:41.403Z,12.00
2023-05-22T04:22:11.963Z,12.00
2023-05-22T04:23:01.127Z,12.00
2023-05-22T04:23:14.070Z,12.00
2023-05-22T04:23:45.046Z,12.00
2023-05-22T04:24:16.028Z,12.00
2023-05-22T04:24:47.578Z,12.00
2023-05-22T04:25:18.960Z,12.00
2023-05-22T04:25:50.681Z,12.10
2023-05-22T04:26:20.347Z,12.10
2023-05-22T04:26:51.519Z,12.10
2023-05-22T04:27:22.167Z,12.10
2023-05-22T04:27:53.054Z,12.10
2023-05-22T04:28:24.125Z,12.10
2023-05-22T04:28:55.164Z,12.10
2023-05-22T04:29:57.907Z,12.20
2023-05-22T04:30:29.112Z,12.20
2023-05-22T04:30:59.899Z,12.20
2023-05-22T04:31:30.831Z,12.20
2023-05-22T04:32:01.681Z,12.20
2023-05-22T04:32:32.531Z,12.30
2023-05-22T04:33:03.299Z,12.30
2023-05-22T04:33:34.097Z,12.30
2023-05-22T04:34:05.780Z,12.30
2023-05-22T04:34:36.558Z,12.30
2023-05-22T04:35:08.464Z,12.30
2023-05-22T04:35:38.927Z,12.30
2023-05-22T04:36:11.668Z,12.30
2023-05-22T04:36:40.440Z,12.40
2023-05-22T04:37:11.340Z,12.40
2023-05-22T04:37:42.321Z,12.40
2023-05-22T04:38:13.589Z,12.40
2023-05-22T04:38:44.549Z,12.40
2023-05-22T04:39:15.075Z,12.50
2023-05-22T04:39:46.324Z,12.50
2023-05-22T04:40:17.885Z,12.50
2023-05-22T04:40:48.679Z,12.50
2023-05-22T04:41:20.619Z,12.50
2023-05-22T04:41:50.205Z,12.50
2023-05-22T04:42:21.798Z,12.60
2023-05-22T04:42:52.591Z,12.60
2023-05-22T04:43:23.069Z,12.60
2023-05-22T04:43:54.080Z,12.60
2023-05-22T04:44:26.195Z,12.60
2023-05-22T04:44:58.232Z,12.70
2023-05-22T04:45:29.187Z,12.70
2023-05-22T04:45:59.041Z,12.70
2023-05-22T04:46:30.065Z,12.70
2023-05-22T04:47:00.253Z,12.70
2023-05-22T04:47:31.479Z,12.80
2023-05-22T04:48:37.985Z,12.80
2023-05-22T04:49:04.358Z,12.80
2023-05-22T04:49:35.152Z,12.80
2023-05-22T04:50:07.265Z,12.80
2023-05-22T04:50:40.941Z,12.90
2023-05-22T04:51:09.060Z,12.90
2023-05-22T04:51:39.790Z,12.90
2023-05-22T04:52:10.599Z,12.90
2023-05-22T04:52:42.967Z,12.90
2023-05-22T04:53:12.398Z,12.90
2023-05-22T04:53:43.298Z,13.00
2023-05-22T04:54:14.279Z,13.00
2023-05-22T04:54:45.577Z,13.00
2023-05-22T04:55:15.987Z,13.10
2023-05-22T04:55:49.858Z,13.10
2023-05-22T04:56:31.981Z,13.10
2023-05-22T04:56:49.786Z,13.10
2023-05-22T04:57:21.104Z,13.10
2023-05-22T04:57:51.813Z,13.10
2023-05-22T04:58:22.093Z,13.20
2023-05-22T04:58:53.203Z,13.20
2023-05-22T04:59:24.308Z,13.20
2023-05-22T04:59:55.187Z,13.20
2023-05-22T05:00:45.138Z,13.30
2023-05-22T05:00:58.341Z,13.30
2023-05-22T05:01:29.949Z,13.30
2023-05-22T05:02:16.890Z,13.30
2023-05-22T05:02:30.510Z,13.40
2023-05-22T05:03:02.114Z,13.40
2023-05-22T05:03:32.410Z,13.40
2023-05-22T05:04:03.419Z,13.40
2023-05-22T05:04:34.099Z,13.50
2023-05-22T05:05:05.275Z,13.50
2023-05-22T05:05:37.939Z,13.50
2023-05-22T05:06:07.449Z,13.50
2023-05-22T05:06:39.318Z,13.50
2023-05-22T05:07:09.729Z,13.60
2023-05-22T05:07:40.287Z,13.60
2023-05-22T05:08:11.671Z,13.60
2023-05-22T05:08:42.541Z,13.60
2023-05-22T05:09:13.300Z,13.60
2023-05-22T05:10:00.212Z,13.60
2023-05-22T05:11:03.595Z,13.60
2023-05-22T05:11:18.018Z,13.60
2023-05-22T05:11:48.909Z,13.70
2023-05-22T05:12:19.447Z,13.70
2023-05-22T05:12:50.174Z,13.80
2023-05-22T05:13:26.259Z,13.80
2023-05-22T05:13:52.141Z,13.90
2023-05-22T05:14:23.312Z,13.90
2023-05-22T05:14:54.149Z,13.90
2023-05-22T05:17:46.444Z,13.90
2023-05-22T05:18:00.692Z,14.00
2023-05-22T05:18:49.057Z,14.00
2023-05-22T05:19:02.289Z,14.00
2023-05-22T05:19:34.728Z,14.10
2023-05-22T05:20:04.413Z,14.10
2023-05-22T05:20:34.960Z,14.10
2023-05-22T05:21:06.232Z,14.20
2023-05-22T05:21:37.735Z,14.30
2023-05-22T05:22:09.196Z,14.30
2023-05-22T05:22:41.400Z,14.30
2023-05-22T05:23:10.324Z,14.40
2023-05-22T05:24:13.512Z,14.50
2023-05-22T05:24:43.387Z,14.60
2023-05-22T05:25:14.642Z,14.60
2023-05-22T05:25:45.071Z,14.60
2023-05-22T05:26:17.143Z,14.70
2023-05-22T05:27:19.253Z,14.80
2023-05-22T05:27:49.765Z,14.80
2023-05-22T05:28:20.581Z,14.80
2023-05-22T05:28:51.474Z,14.90
2023-05-22T05:29:40.332Z,15.00
2023-05-22T05:29:53.344Z,15.00
2023-05-22T05:30:59.292Z,15.00
2023-05-22T05:31:26.832Z,15.00
2023-05-22T05:31:57.897Z,15.10
2023-05-22T05:32:29.436Z,15.10
2023-05-22T05:32:59.828Z,15.10
2023-05-22T05:33:30.741Z,15.20
2023-05-22T05:34:01.981Z,15.20
2023-05-22T05:34:50.208Z,15.20
2023-05-22T05:35:04.298Z,15.20
2023-05-22T05:36:05.240Z,15.20
2023-05-22T05:36:36.520Z,15.20
2023-05-22T05:37:09.079Z,15.30
2023-05-22T05:37:39.484Z,15.40
2023-05-22T05:38:10.116Z,15.50
2023-05-22T05:38:40.612Z,15.50
2023-05-22T05:39:11.436Z,15.50
2023-05-22T05:39:42.382Z,15.60
2023-05-22T05:40:14.485Z,15.60
2023-05-22T05:40:44.264Z,15.60
2023-05-22T05:41:15.434Z,15.60
2023-05-22T05:41:47.836Z,15.60
2023-05-22T05:42:18.086Z,15.70
2023-05-22T05:42:49.699Z,15.80
2023-05-22T05:43:19.812Z,15.90
2023-05-22T05:43:50.353Z,15.90
2023-05-22T05:44:21.410Z,15.90
2023-05-22T05:44:52.142Z,16.00
2023-05-22T05:45:23.636Z,16.00
2023-05-22T05:45:54.400Z,16.00
2023-05-22T05:50:33.189Z,16.30
2023-05-22T05:51:05.950Z,16.30
2023-05-22T05:51:38.298Z,16.30
2023-05-22T05:52:09.201Z,16.30
2023-05-22T05:52:39.517Z,16.40
2023-05-22T05:53:11.034Z,16.40
2023-05-22T05:54:14.049Z,16.40
2023-05-22T05:54:43.583Z,16.40
2023-05-22T05:55:14.084Z,16.40
2023-05-22T05:55:45.531Z,16.40
2023-05-22T05:56:15.557Z,16.40
2023-05-22T05:56:45.601Z,16.50
2023-05-22T05:57:17.470Z,16.50
2023-05-22T05:57:47.584Z,16.50
2023-05-22T05:58:18.495Z,16.60
2023-05-22T05:58:49.628Z,16.60
2023-05-22T05:59:20.510Z,16.60
2023-05-22T05:59:52.332Z,16.70
2023-05-22T06:00:24.136Z,16.70
2023-05-22T06:00:54.729Z,16.80
2023-05-22T06:01:25.180Z,16.80
2023-05-22T06:01:57.572Z,16.90
2023-05-22T06:02:27.652Z,16.90
2023-05-22T06:02:57.564Z,17.00
2023-05-22T06:04:00.139Z,17.20
2023-05-22T06:04:33.502Z,17.40
2023-05-22T06:05:02.000Z,17.50
2023-05-22T06:05:33.273Z,17.70
2023-05-22T06:06:04.071Z,17.80
2023-05-22T06:11:01.464Z,19.10
2023-05-22T06:11:15.594Z,19.10
2023-05-22T06:11:46.237Z,19.20
2023-05-22T06:12:17.878Z,19.30
2023-05-22T06:12:48.902Z,19.60
2023-05-22T06:13:20.572Z,19.60
2023-05-22T06:13:50.877Z,19.60
2023-05-22T06:14:21.384Z,19.70
2023-05-22T06:14:53.416Z,19.70
2023-05-22T06:15:24.628Z,19.70
2023-05-22T06:16:24.918Z,20.10
2023-05-22T06:16:55.353Z,20.10
2023-05-22T06:17:26.703Z,20.20
2023-05-22T06:17:56.959Z,20.20
2023-05-22T06:18:27.461Z,20.20
2023-05-22T06:18:58.854Z,20.20
2023-05-22T06:19:29.421Z,20.30
2023-05-22T06:20:00.886Z,20.30
2023-05-22T06:20:31.945Z,20.30
2023-05-22T06:21:03.195Z,20.30
2023-05-22T06:21:34.122Z,20.30
2023-05-22T06:22:05.618Z,20.40
2023-05-22T06:22:39.912Z,20.40
2023-05-22T06:23:07.115Z,20.40
2023-05-22T06:23:39.477Z,20.50
2023-05-22T06:24:09.153Z,20.50
2023-05-22T06:24:39.705Z,20.50
2023-05-22T06:25:10.949Z,20.50
2023-05-22T06:25:42.004Z,20.50
2023-05-22T06:26:29.866Z,20.60
2023-05-22T06:26:45.501Z,20.60
2023-05-22T06:27:16.045Z,20.60
2023-05-22T06:27:46.213Z,20.60
2023-05-22T06:28:19.718Z,20.60
2023-05-22T06:28:48.040Z,20.60
2023-05-22T06:29:19.647Z,20.60
2023-05-22T06:29:49.769Z,20.60
2023-05-22T06:30:38.364Z,20.70
2023-05-22T06:30:51.643Z,20.90
2023-05-22T06:31:25.241Z,21.00
2023-05-22T06:31:55.371Z,21.00
2023-05-22T06:32:27.419Z,21.30
2023-05-22T06:33:17.954Z,21.50
2023-05-22T06:33:45.632Z,21.80
2023-05-22T06:34:29.135Z,21.80
2023-05-22T06:34:59.923Z,22.00
2023-05-22T06:35:31.408Z,22.00
2023-05-22T06:36:02.250Z,22.00
2023-05-22T06:36:32.742Z,22.00
2023-05-22T06:37:05.213Z,22.10
2023-05-22T06:37:35.888Z,22.20
2023-05-22T06:38:07.136Z,22.30
2023-05-22T06:39:13.703Z,22.30
2023-05-22T06:39:38.728Z,22.50
2023-05-22T06:40:10.473Z,22.50
2023-05-22T06:40:41.231Z,22.50
2023-05-22T06:41:12.456Z,22.60
2023-05-22T06:41:42.603Z,22.60
2023-05-22T06:42:15.075Z,22.60
2023-05-22T06:42:45.382Z,22.70
2023-05-22T06:43:16.872Z,22.70
2023-05-22T06:43:47.085Z,22.80
2023-05-22T06:44:18.002Z,22.80
2023-05-22T06:44:49.046Z,22.80
2023-05-22T06:45:20.029Z,22.80
2023-05-22T06:45:50.886Z,22.80
2023-05-22T06:46:23.779Z,22.80
2023-05-22T06:46:52.773Z,22.70
2023-05-22T06:47:25.484Z,22.70
2023-05-22T06:47:55.866Z,22.70
2023-05-22T06:48:26.286Z,22.70
2023-05-22T06:48:57.557Z,22.60
2023-05-22T06:49:28.137Z,22.60
2023-05-22T06:49:58.866Z,22.60
2023-05-22T06:50:29.723Z,22.60
2023-05-22T06:51:00.829Z,22.60
2023-05-22T06:51:31.775Z,22.60
2023-05-22T06:52:05.221Z,22.70
2023-05-22T06:52:34.554Z,22.70
2023-05-22T06:53:06.140Z,22.70
2023-05-22T06:53:36.647Z,22.80
2023-05-22T06:54:07.580Z,22.90
2023-05-22T06:54:38.067Z,22.90
2023-05-22T06:55:09.109Z,23.00
2023-05-22T06:55:39.658Z,23.10
2023-05-22T06:56:11.361Z,23.20
2023-05-22T06:56:41.764Z,23.20
2023-05-22T06:57:13.144Z,23.30
2023-05-22T06:57:43.891Z,23.30
2023-05-22T06:58:15.849Z,23.30
2023-05-22T06:58:48.940Z,23.40
2023-05-22T06:59:17.577Z,23.40
2023-05-22T07:00:05.344Z,23.50
2023-05-22T07:00:21.957Z,23.60
2023-05-22T07:00:51.503Z,23.60
2023-05-22T07:01:21.060Z,23.70
2023-05-22T07:01:51.763Z,23.70
2023-05-22T07:02:23.631Z,23.70
2023-05-22T07:02:59.669Z,23.70
2023-05-22T07:03:26.425Z,23.80
2023-05-22T07:03:56.578Z,23.90
2023-05-22T07:04:44.785Z,24.00
2023-05-22T07:04:58.942Z,24.00
2023-05-22T07:05:46.920Z,24.00
2023-05-22T07:06:00.206Z,24.00
2023-05-22T07:06:30.927Z,24.00
2023-05-22T07:07:02.066Z,24.00
2023-05-22T07:07:33.213Z,24.00
2023-05-22T07:08:04.582Z,24.10
2023-05-22T07:08:36.152Z,24.10
2023-05-22T07:09:06.145Z,24.10
2023-05-22T07:09:37.224Z,24.20